sensor_id;sensor_type;location;lat;lon;timestamp;pressure;altitude;pressure_sealevel;temperature;humidity
62524;BME280;53689;56.878;60.672;2023-07-29T00:02:16;97580.38;;;24.56;43.22
62524;BME280;53689;56.878;60.672;2023-07-29T00:04:45;97589.78;;;24.53;43.91
62524;BME280;53689;56.878;60.672;2023-07-29T00:07:12;97582.22;;;24.56;43.30
62524;BME280;53689;56.878;60.672;2023-07-29T00:09:40;97586.13;;;24.60;43.84
62524;BME280;53689;56.878;60.672;2023-07-29T00:12:08;97586.13;;;24.60;43.91
62524;BME280;53689;56.878;60.672;2023-07-29T00:14:35;97588.84;;;24.60;43.42
62524;BME280;53689;56.878;60.672;2023-07-29T00:17:04;97592.47;;;24.53;44.15
62524;BME280;53689;56.878;60.672;2023-07-29T00:19:31;97592.00;;;24.45;43.85
62524;BME280;53689;56.878;60.672;2023-07-29T00:22:00;97590.03;;;24.52;43.90
62524;BME280;53689;56.878;60.672;2023-07-29T00:24:28;97598.13;;;24.40;44.11
62524;BME280;53689;56.878;60.672;2023-07-29T00:26:56;97603.06;;;24.43;44.34
62524;BME280;53689;56.878;60.672;2023-07-29T00:29:23;97600.72;;;24.59;43.71
62524;BME280;53689;56.878;60.672;2023-07-29T00:31:51;97594.34;;;24.41;43.63
62524;BME280;53689;56.878;60.672;2023-07-29T00:34:20;97598.69;;;24.42;43.91
62524;BME280;53689;56.878;60.672;2023-07-29T00:36:47;97601.53;;;24.47;43.66
62524;BME280;53689;56.878;60.672;2023-07-29T00:39:16;97605.28;;;24.34;44.10
62524;BME280;53689;56.878;60.672;2023-07-29T00:41:44;97603.06;;;24.43;43.67
62524;BME280;53689;56.878;60.672;2023-07-29T00:44:11;97599.19;;;24.39;43.94
62524;BME280;53689;56.878;60.672;2023-07-29T00:46:40;97602.69;;;24.39;44.09
62524;BME280;53689;56.878;60.672;2023-07-29T00:49:08;97607.72;;;24.36;43.86
62524;BME280;53689;56.878;60.672;2023-07-29T00:51:36;97602.47;;;24.41;44.07
62524;BME280;53689;56.878;60.672;2023-07-29T00:54:04;97618.66;;;24.29;44.26
62524;BME280;53689;56.878;60.672;2023-07-29T00:56:33;97621.94;;;24.31;44.44
62524;BME280;53689;56.878;60.672;2023-07-29T00:59:02;97619.72;;;24.28;44.14
62524;BME280;53689;56.878;60.672;2023-07-29T01:01:30;97628.47;;;24.42;43.86
62524;BME280;53689;56.878;60.672;2023-07-29T01:03:58;97628.38;;;24.61;44.01
62524;BME280;53689;56.878;60.672;2023-07-29T01:06:34;97629.63;;;24.46;43.80
62524;BME280;53689;56.878;60.672;2023-07-29T01:09:04;97616.50;;;24.62;43.95
62524;BME280;53689;56.878;60.672;2023-07-29T01:11:41;97619.59;;;25.01;42.38
62524;BME280;53689;56.878;60.672;2023-07-29T01:14:19;97621.53;;;25.95;40.52
62524;BME280;53689;56.878;60.672;2023-07-29T01:16:52;97619.25;;;26.03;40.17
62524;BME280;53689;56.878;60.672;2023-07-29T01:19:36;97632.78;;;25.33;41.69
62524;BME280;53689;56.878;60.672;2023-07-29T01:22:07;97627.38;;;24.86;43.03
62524;BME280;53689;56.878;60.672;2023-07-29T01:24:36;97628.63;;;24.71;43.02
62524;BME280;53689;56.878;60.672;2023-07-29T01:27:05;97636.16;;;24.69;43.44
62524;BME280;53689;56.878;60.672;2023-07-29T01:29:33;97642.34;;;24.46;43.53
62524;BME280;53689;56.878;60.672;2023-07-29T01:32:06;97639.75;;;24.39;44.49
62524;BME280;53689;56.878;60.672;2023-07-29T01:34:41;97642.72;;;24.49;44.28
62524;BME280;53689;56.878;60.672;2023-07-29T01:37:19;97645.34;;;24.25;44.53
62524;BME280;53689;56.878;60.672;2023-07-29T01:39:55;97642.53;;;24.32;44.57
62524;BME280;53689;56.878;60.672;2023-07-29T01:42:24;97640.53;;;24.28;44.14
62524;BME280;53689;56.878;60.672;2023-07-29T01:44:56;97653.44;;;24.56;44.29
62524;BME280;53689;56.878;60.672;2023-07-29T01:47:25;97659.44;;;24.58;43.54
62524;BME280;53689;56.878;60.672;2023-07-29T01:49:54;97662.16;;;24.70;43.39
62524;BME280;53689;56.878;60.672;2023-07-29T01:52:21;97669.78;;;24.49;44.46
62524;BME280;53689;56.878;60.672;2023-07-29T01:54:50;97671.31;;;24.57;44.48
62524;BME280;53689;56.878;60.672;2023-07-29T01:57:19;97679.66;;;24.56;44.46
62524;BME280;53689;56.878;60.672;2023-07-29T01:59:47;97690.84;;;24.59;44.05
62524;BME280;53689;56.878;60.672;2023-07-29T02:02:15;97697.28;;;24.46;43.95
62524;BME280;53689;56.878;60.672;2023-07-29T02:04:43;97694.91;;;24.38;44.95
62524;BME280;53689;56.878;60.672;2023-07-29T02:07:11;97693.91;;;24.63;44.36
62524;BME280;53689;56.878;60.672;2023-07-29T02:09:38;97702.03;;;24.32;45.36
62524;BME280;53689;56.878;60.672;2023-07-29T02:12:07;97703.94;;;24.32;44.55
62524;BME280;53689;56.878;60.672;2023-07-29T02:14:38;97714.88;;;24.67;43.74
62524;BME280;53689;56.878;60.672;2023-07-29T02:17:06;97705.75;;;24.50;44.65
62524;BME280;53689;56.878;60.672;2023-07-29T02:19:34;97714.72;;;24.50;44.28
62524;BME280;53689;56.878;60.672;2023-07-29T02:22:02;97715.66;;;24.25;45.64
62524;BME280;53689;56.878;60.672;2023-07-29T02:24:29;97712.09;;;24.44;45.34
62524;BME280;53689;56.878;60.672;2023-07-29T02:26:58;97717.28;;;24.45;44.46
62524;BME280;53689;56.878;60.672;2023-07-29T02:29:25;97710.53;;;24.36;45.46
62524;BME280;53689;56.878;60.672;2023-07-29T02:31:54;97717.31;;;24.57;44.78
62524;BME280;53689;56.878;60.672;2023-07-29T02:34:22;97718.22;;;24.51;44.84
62524;BME280;53689;56.878;60.672;2023-07-29T02:36:50;97713.03;;;24.37;45.21
62524;BME280;53689;56.878;60.672;2023-07-29T02:39:17;97710.25;;;24.56;45.21
62524;BME280;53689;56.878;60.672;2023-07-29T02:41:46;97720.28;;;24.67;44.83
62524;BME280;53689;56.878;60.672;2023-07-29T02:44:13;97708.47;;;24.50;45.25
62524;BME280;53689;56.878;60.672;2023-07-29T02:46:41;97706.84;;;24.61;45.45
62524;BME280;53689;56.878;60.672;2023-07-29T02:49:10;97714.97;;;24.30;45.41
62524;BME280;53689;56.878;60.672;2023-07-29T02:51:38;97717.09;;;24.59;45.18
62524;BME280;53689;56.878;60.672;2023-07-29T02:54:06;97720.88;;;24.70;44.47
62524;BME280;53689;56.878;60.672;2023-07-29T02:56:33;97730.88;;;24.69;45.23
62524;BME280;53689;56.878;60.672;2023-07-29T02:59:02;97718.31;;;24.44;45.85
62524;BME280;53689;56.878;60.672;2023-07-29T03:01:30;97733.41;;;24.83;44.74
62524;BME280;53689;56.878;60.672;2023-07-29T03:03:58;97729.69;;;24.96;44.05
62524;BME280;53689;56.878;60.672;2023-07-29T03:06:27;97729.69;;;24.65;45.39
62524;BME280;53689;56.878;60.672;2023-07-29T03:08:55;97734.41;;;24.70;45.71
62524;BME280;53689;56.878;60.672;2023-07-29T03:11:22;97731.94;;;24.68;44.84
62524;BME280;53689;56.878;60.672;2023-07-29T03:13:50;97735.47;;;24.69;45.30
62524;BME280;53689;56.878;60.672;2023-07-29T03:16:18;97732.00;;;24.49;45.39
62524;BME280;53689;56.878;60.672;2023-07-29T03:18:51;97727.09;;;24.58;45.80
62524;BME280;53689;56.878;60.672;2023-07-29T03:21:19;97727.84;;;24.77;44.77
62524;BME280;53689;56.878;60.672;2023-07-29T03:23:48;97726.66;;;24.73;45.64
62524;BME280;53689;56.878;60.672;2023-07-29T03:26:16;97727.56;;;24.86;45.26
62524;BME280;53689;56.878;60.672;2023-07-29T03:28:43;97718.53;;;24.73;45.72
62524;BME280;53689;56.878;60.672;2023-07-29T03:31:11;97713.41;;;24.84;44.96
62524;BME280;53689;56.878;60.672;2023-07-29T03:33:39;97720.34;;;24.79;45.33
62524;BME280;53689;56.878;60.672;2023-07-29T03:36:07;97718.22;;;24.82;45.27
62524;BME280;53689;56.878;60.672;2023-07-29T03:38:34;97721.19;;;24.92;45.33
62524;BME280;53689;56.878;60.672;2023-07-29T03:41:03;97726.97;;;24.53;46.25
62524;BME280;53689;56.878;60.672;2023-07-29T03:43:31;97722.13;;;24.86;44.85
62524;BME280;53689;56.878;60.672;2023-07-29T03:46:01;97723.78;;;24.87;45.42
62524;BME280;53689;56.878;60.672;2023-07-29T03:48:29;97725.78;;;25.03;44.96
62524;BME280;53689;56.878;60.672;2023-07-29T03:50:57;97731.69;;;25.00;45.04
62524;BME280;53689;56.878;60.672;2023-07-29T03:53:24;97734.13;;;24.90;44.89
62524;BME280;53689;56.878;60.672;2023-07-29T03:55:52;97738.16;;;24.99;44.93
62524;BME280;53689;56.878;60.672;2023-07-29T03:58:21;97732.59;;;24.94;45.00
62524;BME280;53689;56.878;60.672;2023-07-29T04:00:49;97736.91;;;25.14;44.22
62524;BME280;53689;56.878;60.672;2023-07-29T04:03:17;97736.59;;;24.79;45.41
62524;BME280;53689;56.878;60.672;2023-07-29T04:05:45;97742.59;;;24.82;45.93
62524;BME280;53689;56.878;60.672;2023-07-29T04:08:12;97743.25;;;25.07;44.76
62524;BME280;53689;56.878;60.672;2023-07-29T04:10:40;97739.19;;;24.86;44.68
62524;BME280;53689;56.878;60.672;2023-07-29T04:13:08;97737.94;;;25.25;43.82
62524;BME280;53689;56.878;60.672;2023-07-29T04:15:37;97739.25;;;25.46;43.60
62524;BME280;53689;56.878;60.672;2023-07-29T04:18:05;97747.38;;;25.34;44.02
62524;BME280;53689;56.878;60.672;2023-07-29T04:20:33;97751.59;;;25.06;44.39
62524;BME280;53689;56.878;60.672;2023-07-29T04:23:01;97746.31;;;25.35;43.71
62524;BME280;53689;56.878;60.672;2023-07-29T04:25:28;97737.59;;;25.21;43.73
62524;BME280;53689;56.878;60.672;2023-07-29T04:27:56;97737.97;;;25.48;43.03
62524;BME280;53689;56.878;60.672;2023-07-29T04:30:24;97743.13;;;25.26;43.02
62524;BME280;53689;56.878;60.672;2023-07-29T04:32:53;97739.50;;;25.20;43.00
62524;BME280;53689;56.878;60.672;2023-07-29T04:35:21;97733.94;;;25.15;43.59
62524;BME280;53689;56.878;60.672;2023-07-29T04:37:49;97739.38;;;25.51;42.86
62524;BME280;53689;56.878;60.672;2023-07-29T04:40:16;97733.81;;;25.70;42.48
62524;BME280;53689;56.878;60.672;2023-07-29T04:42:44;97734.41;;;25.48;42.82
62524;BME280;53689;56.878;60.672;2023-07-29T04:45:12;97738.41;;;25.45;43.39
62524;BME280;53689;56.878;60.672;2023-07-29T04:47:39;97727.53;;;25.93;42.14
62524;BME280;53689;56.878;60.672;2023-07-29T04:50:09;97740.44;;;25.50;44.04
62524;BME280;53689;56.878;60.672;2023-07-29T04:52:37;97737.59;;;25.45;43.34
62524;BME280;53689;56.878;60.672;2023-07-29T04:55:06;97732.63;;;25.42;43.21
62524;BME280;53689;56.878;60.672;2023-07-29T04:57:34;97739.84;;;25.36;42.92
62524;BME280;53689;56.878;60.672;2023-07-29T05:00:02;97742.53;;;25.36;42.93
62524;BME280;53689;56.878;60.672;2023-07-29T05:02:30;97746.09;;;25.60;42.86
62524;BME280;53689;56.878;60.672;2023-07-29T05:04:57;97747.06;;;25.54;42.44
62524;BME280;53689;56.878;60.672;2023-07-29T05:07:26;97744.34;;;25.66;42.31
62524;BME280;53689;56.878;60.672;2023-07-29T05:09:54;97738.56;;;25.62;42.63
62524;BME280;53689;56.878;60.672;2023-07-29T05:12:22;97739.72;;;25.43;42.30
62524;BME280;53689;56.878;60.672;2023-07-29T05:14:50;97745.38;;;25.29;42.68
62524;BME280;53689;56.878;60.672;2023-07-29T05:17:18;97742.19;;;25.20;42.78
62524;BME280;53689;56.878;60.672;2023-07-29T05:19:45;97743.59;;;25.35;42.49
62524;BME280;53689;56.878;60.672;2023-07-29T05:22:13;97743.16;;;25.38;42.82
62524;BME280;53689;56.878;60.672;2023-07-29T05:24:42;97734.56;;;25.53;42.71
62524;BME280;53689;56.878;60.672;2023-07-29T05:27:10;97725.75;;;25.99;41.49
62524;BME280;53689;56.878;60.672;2023-07-29T05:29:37;97732.31;;;25.62;41.76
62524;BME280;53689;56.878;60.672;2023-07-29T05:32:05;97733.88;;;25.99;41.33
62524;BME280;53689;56.878;60.672;2023-07-29T05:34:33;97726.38;;;25.89;41.42
62524;BME280;53689;56.878;60.672;2023-07-29T05:37:01;97737.72;;;26.27;40.53
62524;BME280;53689;56.878;60.672;2023-07-29T05:39:29;97741.56;;;26.02;41.32
62524;BME280;53689;56.878;60.672;2023-07-29T05:41:58;97741.63;;;25.66;41.66
62524;BME280;53689;56.878;60.672;2023-07-29T05:44:26;97735.88;;;25.62;41.00
62524;BME280;53689;56.878;60.672;2023-07-29T05:46:53;97727.13;;;25.48;41.15
62524;BME280;53689;56.878;60.672;2023-07-29T05:49:21;97731.03;;;25.53;41.88
62524;BME280;53689;56.878;60.672;2023-07-29T05:51:49;97730.88;;;25.83;40.85
62524;BME280;53689;56.878;60.672;2023-07-29T05:54:17;97727.72;;;25.62;41.08
62524;BME280;53689;56.878;60.672;2023-07-29T05:56:45;97720.41;;;25.63;41.14
62524;BME280;53689;56.878;60.672;2023-07-29T05:59:14;97717.91;;;25.73;40.94
62524;BME280;53689;56.878;60.672;2023-07-29T06:01:42;97720.22;;;26.06;40.22
62524;BME280;53689;56.878;60.672;2023-07-29T06:04:10;97720.69;;;26.02;40.25
62524;BME280;53689;56.878;60.672;2023-07-29T06:06:37;97729.84;;;25.60;40.07
62524;BME280;53689;56.878;60.672;2023-07-29T06:09:06;97740.09;;;25.58;41.00
62524;BME280;53689;56.878;60.672;2023-07-29T06:11:34;97743.75;;;25.64;40.78
62524;BME280;53689;56.878;60.672;2023-07-29T06:14:01;97740.94;;;25.71;40.37
62524;BME280;53689;56.878;60.672;2023-07-29T06:16:30;97728.16;;;25.95;40.32
62524;BME280;53689;56.878;60.672;2023-07-29T06:18:58;97733.13;;;26.15;39.45
62524;BME280;53689;56.878;60.672;2023-07-29T06:21:26;97742.09;;;25.63;40.16
62524;BME280;53689;56.878;60.672;2023-07-29T06:23:53;97737.38;;;25.58;41.14
62524;BME280;53689;56.878;60.672;2023-07-29T06:26:21;97739.09;;;26.00;40.28
62524;BME280;53689;56.878;60.672;2023-07-29T06:28:49;97732.38;;;26.03;39.97
62524;BME280;53689;56.878;60.672;2023-07-29T06:31:16;97729.31;;;25.87;39.97
62524;BME280;53689;56.878;60.672;2023-07-29T06:33:45;97736.88;;;25.73;40.73
62524;BME280;53689;56.878;60.672;2023-07-29T06:36:13;97728.16;;;25.83;39.90
62524;BME280;53689;56.878;60.672;2023-07-29T06:38:41;97740.78;;;25.77;40.59
62524;BME280;53689;56.878;60.672;2023-07-29T06:41:08;97740.88;;;25.83;41.27
62524;BME280;53689;56.878;60.672;2023-07-29T06:43:39;97729.09;;;25.89;41.18
62524;BME280;53689;56.878;60.672;2023-07-29T06:46:07;97730.06;;;26.53;39.42
62524;BME280;53689;56.878;60.672;2023-07-29T06:48:36;97740.16;;;26.40;39.97
62524;BME280;53689;56.878;60.672;2023-07-29T06:51:06;97742.38;;;26.02;39.93
62524;BME280;53689;56.878;60.672;2023-07-29T06:53:34;97728.56;;;26.28;40.24
62524;BME280;53689;56.878;60.672;2023-07-29T06:56:01;97733.81;;;25.94;40.26
62524;BME280;53689;56.878;60.672;2023-07-29T06:58:29;97734.97;;;25.98;40.77
62524;BME280;53689;56.878;60.672;2023-07-29T07:00:57;97740.34;;;26.10;40.79
62524;BME280;53689;56.878;60.672;2023-07-29T07:03:24;97741.28;;;26.15;40.12
62524;BME280;53689;56.878;60.672;2023-07-29T07:05:52;97728.09;;;26.07;40.12
62524;BME280;53689;56.878;60.672;2023-07-29T07:08:21;97736.66;;;25.75;40.47
62524;BME280;53689;56.878;60.672;2023-07-29T07:10:49;97745.41;;;26.18;40.10
62524;BME280;53689;56.878;60.672;2023-07-29T07:13:16;97742.88;;;26.40;39.59
62524;BME280;53689;56.878;60.672;2023-07-29T07:15:45;97740.59;;;26.08;39.42
62524;BME280;53689;56.878;60.672;2023-07-29T07:18:12;97736.88;;;25.97;40.26
62524;BME280;53689;56.878;60.672;2023-07-29T07:20:40;97739.53;;;26.09;40.47
62524;BME280;53689;56.878;60.672;2023-07-29T07:23:07;97744.81;;;26.28;40.30
62524;BME280;53689;56.878;60.672;2023-07-29T07:25:36;97745.38;;;26.42;39.44
62524;BME280;53689;56.878;60.672;2023-07-29T07:28:04;97746.91;;;26.38;39.44
62524;BME280;53689;56.878;60.672;2023-07-29T07:30:31;97740.69;;;26.25;39.76
62524;BME280;53689;56.878;60.672;2023-07-29T07:32:59;97737.44;;;25.99;40.10
62524;BME280;53689;56.878;60.672;2023-07-29T07:35:27;97739.66;;;26.02;40.48
62524;BME280;53689;56.878;60.672;2023-07-29T07:37:54;97735.16;;;26.08;39.65
62524;BME280;53689;56.878;60.672;2023-07-29T07:40:22;97733.16;;;26.03;39.47
62524;BME280;53689;56.878;60.672;2023-07-29T07:42:51;97740.38;;;25.98;40.77
62524;BME280;53689;56.878;60.672;2023-07-29T07:45:19;97727.28;;;26.07;40.45
62524;BME280;53689;56.878;60.672;2023-07-29T07:47:47;97729.31;;;25.99;40.02
62524;BME280;53689;56.878;60.672;2023-07-29T07:50:14;97732.41;;;26.32;39.44
62524;BME280;53689;56.878;60.672;2023-07-29T07:52:42;97740.03;;;26.64;38.51
62524;BME280;53689;56.878;60.672;2023-07-29T07:55:09;97734.63;;;26.35;39.55
62524;BME280;53689;56.878;60.672;2023-07-29T07:57:37;97727.81;;;25.92;39.96
62524;BME280;53689;56.878;60.672;2023-07-29T08:00:07;97729.72;;;26.20;39.06
62524;BME280;53689;56.878;60.672;2023-07-29T08:02:43;97723.53;;;26.66;38.49
62524;BME280;53689;56.878;60.672;2023-07-29T08:05:11;97724.03;;;26.34;38.45
62524;BME280;53689;56.878;60.672;2023-07-29T08:07:38;97716.03;;;26.27;39.12
62524;BME280;53689;56.878;60.672;2023-07-29T08:10:07;97725.34;;;26.19;38.82
62524;BME280;53689;56.878;60.672;2023-07-29T08:12:35;97718.72;;;26.27;38.59
62524;BME280;53689;56.878;60.672;2023-07-29T08:15:03;97722.84;;;26.29;39.03
62524;BME280;53689;56.878;60.672;2023-07-29T08:17:32;97718.88;;;26.08;39.34
62524;BME280;53689;56.878;60.672;2023-07-29T08:20:00;97714.63;;;26.24;38.99
62524;BME280;53689;56.878;60.672;2023-07-29T08:22:28;97721.72;;;26.25;38.98
62524;BME280;53689;56.878;60.672;2023-07-29T08:24:56;97718.34;;;26.35;38.62
62524;BME280;53689;56.878;60.672;2023-07-29T08:27:24;97716.72;;;26.34;38.34
62524;BME280;53689;56.878;60.672;2023-07-29T08:29:51;97727.75;;;26.44;38.85
62524;BME280;53689;56.878;60.672;2023-07-29T08:32:20;97719.91;;;26.31;38.77
62524;BME280;53689;56.878;60.672;2023-07-29T08:34:49;97724.38;;;26.37;39.06
62524;BME280;53689;56.878;60.672;2023-07-29T08:37:17;97718.31;;;26.47;38.63
62524;BME280;53689;56.878;60.672;2023-07-29T08:39:45;97715.78;;;26.74;38.06
62524;BME280;53689;56.878;60.672;2023-07-29T08:42:15;97720.25;;;26.81;37.88
62524;BME280;53689;56.878;60.672;2023-07-29T08:44:45;97716.81;;;27.03;37.49
62524;BME280;53689;56.878;60.672;2023-07-29T08:47:15;97716.28;;;26.71;37.78
62524;BME280;53689;56.878;60.672;2023-07-29T08:49:45;97708.94;;;26.55;38.42
62524;BME280;53689;56.878;60.672;2023-07-29T08:52:14;97701.34;;;26.86;37.73
62524;BME280;53689;56.878;60.672;2023-07-29T08:54:42;97712.25;;;26.74;38.44
62524;BME280;53689;56.878;60.672;2023-07-29T08:57:10;97709.84;;;26.60;38.18
62524;BME280;53689;56.878;60.672;2023-07-29T08:59:39;97703.03;;;26.58;38.01
62524;BME280;53689;56.878;60.672;2023-07-29T09:02:07;97711.06;;;26.53;38.61
62524;BME280;53689;56.878;60.672;2023-07-29T09:04:34;97702.69;;;26.54;39.19
62524;BME280;53689;56.878;60.672;2023-07-29T09:07:03;97701.47;;;26.79;37.87
62524;BME280;53689;56.878;60.672;2023-07-29T09:09:34;97696.16;;;27.19;37.28
62524;BME280;53689;56.878;60.672;2023-07-29T09:12:02;97703.13;;;27.49;36.64
62524;BME280;53689;56.878;60.672;2023-07-29T09:14:30;97715.81;;;27.26;37.03
62524;BME280;53689;56.878;60.672;2023-07-29T09:16:57;97720.44;;;26.91;38.23
62524;BME280;53689;56.878;60.672;2023-07-29T09:19:25;97715.94;;;26.68;38.44
62524;BME280;53689;56.878;60.672;2023-07-29T09:21:53;97710.69;;;26.61;38.32
62524;BME280;53689;56.878;60.672;2023-07-29T09:24:21;97707.00;;;26.67;38.79
62524;BME280;53689;56.878;60.672;2023-07-29T09:26:50;97702.66;;;27.00;37.66
62524;BME280;53689;56.878;60.672;2023-07-29T09:29:21;97706.28;;;27.23;37.25
62524;BME280;53689;56.878;60.672;2023-07-29T09:31:49;97700.34;;;26.92;38.32
62524;BME280;53689;56.878;60.672;2023-07-29T09:34:16;97700.16;;;26.82;38.00
62524;BME280;53689;56.878;60.672;2023-07-29T09:36:44;97695.00;;;26.80;37.73
62524;BME280;53689;56.878;60.672;2023-07-29T09:39:12;97706.50;;;26.70;38.42
62524;BME280;53689;56.878;60.672;2023-07-29T09:41:39;97694.94;;;26.92;37.89
62524;BME280;53689;56.878;60.672;2023-07-29T09:44:10;97687.31;;;26.77;38.01
62524;BME280;53689;56.878;60.672;2023-07-29T09:46:38;97683.31;;;26.80;37.62
62524;BME280;53689;56.878;60.672;2023-07-29T09:49:07;97690.38;;;26.81;38.48
62524;BME280;53689;56.878;60.672;2023-07-29T09:51:38;97688.16;;;27.12;38.12
62524;BME280;53689;56.878;60.672;2023-07-29T09:54:06;97688.50;;;27.33;36.91
62524;BME280;53689;56.878;60.672;2023-07-29T09:56:39;97687.47;;;27.39;36.74
62524;BME280;53689;56.878;60.672;2023-07-29T09:59:08;97686.53;;;27.28;36.64
62524;BME280;53689;56.878;60.672;2023-07-29T10:01:37;97686.47;;;27.06;37.73
62524;BME280;53689;56.878;60.672;2023-07-29T10:04:06;97683.91;;;27.16;37.23
62524;BME280;53689;56.878;60.672;2023-07-29T10:06:38;97683.47;;;27.07;37.37
62524;BME280;53689;56.878;60.672;2023-07-29T10:09:07;97681.94;;;27.11;37.99
62524;BME280;53689;56.878;60.672;2023-07-29T10:11:35;97684.78;;;27.22;37.10
62524;BME280;53689;56.878;60.672;2023-07-29T10:14:04;97683.72;;;27.23;37.31
62524;BME280;53689;56.878;60.672;2023-07-29T10:16:37;97684.41;;;27.13;37.26
62524;BME280;53689;56.878;60.672;2023-07-29T10:19:07;97684.56;;;27.06;37.43
62524;BME280;53689;56.878;60.672;2023-07-29T10:21:38;97685.97;;;27.09;37.60
62524;BME280;53689;56.878;60.672;2023-07-29T10:24:09;97689.34;;;27.16;37.59
62524;BME280;53689;56.878;60.672;2023-07-29T10:26:40;97688.03;;;27.19;37.25
62524;BME280;53689;56.878;60.672;2023-07-29T10:29:12;97683.56;;;27.12;37.27
62524;BME280;53689;56.878;60.672;2023-07-29T10:31:43;97680.44;;;27.21;37.13
62524;BME280;53689;56.878;60.672;2023-07-29T10:34:12;97673.03;;;27.16;37.19
62524;BME280;53689;56.878;60.672;2023-07-29T10:36:41;97686.41;;;27.40;36.54
62524;BME280;53689;56.878;60.672;2023-07-29T10:39:09;97681.56;;;27.42;36.64
62524;BME280;53689;56.878;60.672;2023-07-29T10:41:56;97678.22;;;27.18;37.14
62524;BME280;53689;56.878;60.672;2023-07-29T10:44:46;97676.56;;;27.17;36.91
62524;BME280;53689;56.878;60.672;2023-07-29T10:47:16;97675.31;;;27.24;37.01
62524;BME280;53689;56.878;60.672;2023-07-29T10:49:45;97675.75;;;27.16;37.01
62524;BME280;53689;56.878;60.672;2023-07-29T10:52:13;97666.69;;;27.50;36.63
62524;BME280;53689;56.878;60.672;2023-07-29T10:54:45;97666.16;;;27.31;36.84
62524;BME280;53689;56.878;60.672;2023-07-29T10:57:13;97659.34;;;27.11;37.31
62524;BME280;53689;56.878;60.672;2023-07-29T10:59:41;97675.41;;;27.52;36.26
62524;BME280;53689;56.878;60.672;2023-07-29T11:02:28;97664.16;;;27.43;35.53
62524;BME280;53689;56.878;60.672;2023-07-29T11:04:56;97654.84;;;27.39;36.22
62524;BME280;53689;56.878;60.672;2023-07-29T11:07:25;97653.88;;;27.45;36.09
62524;BME280;53689;56.878;60.672;2023-07-29T11:10:00;97649.19;;;27.40;36.47
62524;BME280;53689;56.878;60.672;2023-07-29T11:12:35;97652.50;;;27.65;35.49
62524;BME280;53689;56.878;60.672;2023-07-29T11:15:06;97645.31;;;27.76;35.31
62524;BME280;53689;56.878;60.672;2023-07-29T11:17:41;97647.59;;;27.45;36.22
62524;BME280;53689;56.878;60.672;2023-07-29T11:20:10;97656.16;;;27.98;34.93
62524;BME280;53689;56.878;60.672;2023-07-29T11:22:38;97657.50;;;27.73;35.43
62524;BME280;53689;56.878;60.672;2023-07-29T11:25:08;97655.66;;;27.56;36.04
62524;BME280;53689;56.878;60.672;2023-07-29T11:27:36;97662.91;;;27.51;35.88
62524;BME280;53689;56.878;60.672;2023-07-29T11:30:05;97652.38;;;27.54;36.19
62524;BME280;53689;56.878;60.672;2023-07-29T11:32:33;97660.91;;;27.63;35.47
62524;BME280;53689;56.878;60.672;2023-07-29T11:35:07;97654.56;;;28.02;34.79
62524;BME280;53689;56.878;60.672;2023-07-29T11:37:35;97646.97;;;28.27;34.31
62524;BME280;53689;56.878;60.672;2023-07-29T11:40:03;97656.88;;;28.16;34.67
62524;BME280;53689;56.878;60.672;2023-07-29T11:42:32;97658.59;;;27.72;35.42
62524;BME280;53689;56.878;60.672;2023-07-29T11:45:00;97652.63;;;27.75;35.28
62524;BME280;53689;56.878;60.672;2023-07-29T11:47:28;97651.72;;;27.47;35.71
62524;BME280;53689;56.878;60.672;2023-07-29T11:49:59;97643.88;;;27.51;35.95
62524;BME280;53689;56.878;60.672;2023-07-29T11:52:30;97648.16;;;28.14;34.60
62524;BME280;53689;56.878;60.672;2023-07-29T11:54:59;97640.19;;;28.29;34.52
62524;BME280;53689;56.878;60.672;2023-07-29T11:57:27;97648.31;;;28.02;34.75
62524;BME280;53689;56.878;60.672;2023-07-29T11:59:55;97649.06;;;27.97;34.95
62524;BME280;53689;56.878;60.672;2023-07-29T12:02:23;97644.09;;;27.66;35.39
62524;BME280;53689;56.878;60.672;2023-07-29T12:04:52;97646.03;;;27.49;36.07
62524;BME280;53689;56.878;60.672;2023-07-29T12:07:20;97638.19;;;27.97;34.88
62524;BME280;53689;56.878;60.672;2023-07-29T12:09:50;97642.09;;;28.06;34.75
62524;BME280;53689;56.878;60.672;2023-07-29T12:12:19;97635.63;;;28.13;35.13
62524;BME280;53689;56.878;60.672;2023-07-29T12:14:49;97643.13;;;28.00;34.56
62524;BME280;53689;56.878;60.672;2023-07-29T12:17:18;97642.72;;;27.86;35.37
62524;BME280;53689;56.878;60.672;2023-07-29T12:19:46;97643.47;;;27.59;35.86
62524;BME280;53689;56.878;60.672;2023-07-29T12:22:19;97642.84;;;27.74;35.37
62524;BME280;53689;56.878;60.672;2023-07-29T12:24:46;97641.06;;;27.85;35.61
62524;BME280;53689;56.878;60.672;2023-07-29T12:27:16;97652.94;;;28.23;34.77
62524;BME280;53689;56.878;60.672;2023-07-29T12:29:44;97642.50;;;27.93;34.99
62524;BME280;53689;56.878;60.672;2023-07-29T12:32:11;97634.28;;;27.88;35.23
62524;BME280;53689;56.878;60.672;2023-07-29T12:34:39;97640.13;;;27.74;35.61
62524;BME280;53689;56.878;60.672;2023-07-29T12:37:08;97641.94;;;27.68;35.74
62524;BME280;53689;56.878;60.672;2023-07-29T12:39:40;97645.22;;;27.70;35.33
62524;BME280;53689;56.878;60.672;2023-07-29T12:42:08;97635.09;;;27.88;35.26
62524;BME280;53689;56.878;60.672;2023-07-29T12:44:38;97638.69;;;27.94;34.99
62524;BME280;53689;56.878;60.672;2023-07-29T12:47:05;97636.13;;;27.82;35.77
62524;BME280;53689;56.878;60.672;2023-07-29T12:49:33;97634.47;;;27.81;35.37
62524;BME280;53689;56.878;60.672;2023-07-29T12:52:01;97637.06;;;27.93;35.11
62524;BME280;53689;56.878;60.672;2023-07-29T12:54:28;97637.88;;;27.93;35.20
62524;BME280;53689;56.878;60.672;2023-07-29T12:56:56;97635.47;;;27.97;35.16
62524;BME280;53689;56.878;60.672;2023-07-29T12:59:24;97638.72;;;28.21;34.66